sensor_id;sensor_type;location;lat;lon;timestamp;pressure;altitude;pressure_sealevel;temperature;humidity
59272;BME280;45043;51.068;7.026;2022-12-29T00:01:49;99295.56;;;6.46;69.99
59272;BME280;45043;51.068;7.026;2022-12-29T00:04:50;99272.00;;;6.45;70.37
59272;BME280;45043;51.068;7.026;2022-12-29T00:07:50;99282.16;;;6.41;70.58
59272;BME280;45043;51.068;7.026;2022-12-29T00:10:51;99273.03;;;6.44;70.84
59272;BME280;45043;51.068;7.026;2022-12-29T00:13:52;99252.13;;;6.42;71.02
59272;BME280;45043;51.068;7.026;2022-12-29T00:17:12;99245.63;;;6.45;70.89
59272;BME280;45043;51.068;7.026;2022-12-29T00:20:13;99252.94;;;6.43;71.42
59272;BME280;45043;51.068;7.026;2022-12-29T00:23:33;99246.84;;;6.42;71.34
59272;BME280;45043;51.068;7.026;2022-12-29T00:30:23;99236.91;;;6.44;71.63
59272;BME280;45043;51.068;7.026;2022-12-29T00:33:43;99226.56;;;6.43;71.74
59272;BME280;45043;51.068;7.026;2022-12-29T00:37:02;99222.50;;;6.47;71.46
59272;BME280;45043;51.068;7.026;2022-12-29T00:40:03;99222.72;;;6.52;71.79
59272;BME280;45043;51.068;7.026;2022-12-29T00:43:22;99219.69;;;6.55;71.60
59272;BME280;45043;51.068;7.026;2022-12-29T00:46:42;99222.53;;;6.67;71.30
59272;BME280;45043;51.068;7.026;2022-12-29T00:49:43;99212.59;;;6.69;71.11
59272;BME280;45043;51.068;7.026;2022-12-29T00:52:43;99202.84;;;6.69;71.12
59272;BME280;45043;51.068;7.026;2022-12-29T00:55:44;99226.19;;;6.72;71.26
59272;BME280;45043;51.068;7.026;2022-12-29T00:58:44;99224.78;;;6.76;70.94
59272;BME280;45043;51.068;7.026;2022-12-29T01:01:46;99202.03;;;6.82;70.83
59272;BME280;45043;51.068;7.026;2022-12-29T01:04:47;99206.13;;;6.84;70.85
59272;BME280;45043;51.068;7.026;2022-12-29T01:07:50;99202.28;;;6.87;70.63
59272;BME280;45043;51.068;7.026;2022-12-29T01:11:08;99215.88;;;6.91;70.51
59272;BME280;45043;51.068;7.026;2022-12-29T01:14:09;99218.09;;;6.94;70.56
59272;BME280;45043;51.068;7.026;2022-12-29T01:17:10;99221.34;;;6.96;70.38
59272;BME280;45043;51.068;7.026;2022-12-29T01:20:11;99219.13;;;6.93;70.42
59272;BME280;45043;51.068;7.026;2022-12-29T01:23:12;99228.88;;;6.92;70.58
59272;BME280;45043;51.068;7.026;2022-12-29T01:26:15;99241.66;;;6.89;70.57
59272;BME280;45043;51.068;7.026;2022-12-29T01:29:17;99248.56;;;6.90;70.98
59272;BME280;45043;51.068;7.026;2022-12-29T01:32:21;99226.22;;;6.92;70.30
59272;BME280;45043;51.068;7.026;2022-12-29T01:35:22;99218.50;;;6.97;70.23
59272;BME280;45043;51.068;7.026;2022-12-29T01:38:22;99217.06;;;7.01;70.35
59272;BME280;45043;51.068;7.026;2022-12-29T01:41:23;99227.06;;;7.06;70.36
59272;BME280;45043;51.068;7.026;2022-12-29T01:44:55;99226.44;;;7.04;69.88
59272;BME280;45043;51.068;7.026;2022-12-29T01:48:01;99225.41;;;7.05;70.09
59272;BME280;45043;51.068;7.026;2022-12-29T01:51:04;99228.66;;;7.07;70.34
59272;BME280;45043;51.068;7.026;2022-12-29T01:54:09;99216.09;;;7.09;69.87
59272;BME280;45043;51.068;7.026;2022-12-29T01:57:19;99220.94;;;7.12;70.05
59272;BME280;45043;51.068;7.026;2022-12-29T02:00:21;99211.22;;;7.13;69.80
59272;BME280;45043;51.068;7.026;2022-12-29T02:03:23;99208.94;;;7.16;68.88
59272;BME280;45043;51.068;7.026;2022-12-29T02:06:35;99201.84;;;7.17;68.53
59272;BME280;45043;51.068;7.026;2022-12-29T02:09:37;99197.97;;;7.19;67.98
59272;BME280;45043;51.068;7.026;2022-12-29T02:12:38;99192.91;;;7.24;67.37
59272;BME280;45043;51.068;7.026;2022-12-29T02:15:51;99186.78;;;7.30;66.42
59272;BME280;45043;51.068;7.026;2022-12-29T02:22:31;99180.03;;;7.41;64.85
59272;BME280;45043;51.068;7.026;2022-12-29T02:25:54;99190.38;;;7.56;63.86
59272;BME280;45043;51.068;7.026;2022-12-29T02:32:54;99169.84;;;7.65;61.79
59272;BME280;45043;51.068;7.026;2022-12-29T02:39:22;99168.31;;;7.82;60.37
59272;BME280;45043;51.068;7.026;2022-12-29T02:42:39;99168.28;;;7.89;60.27
59272;BME280;45043;51.068;7.026;2022-12-29T02:45:53;99163.63;;;7.91;59.54
59272;BME280;45043;51.068;7.026;2022-12-29T02:49:13;99156.06;;;7.94;58.94
59272;BME280;45043;51.068;7.026;2022-12-29T02:52:22;99151.97;;;7.98;59.20
59272;BME280;45043;51.068;7.026;2022-12-29T02:55:24;99149.53;;;7.97;59.02
59272;BME280;45043;51.068;7.026;2022-12-29T02:58:26;99149.53;;;7.97;59.07
59272;BME280;45043;51.068;7.026;2022-12-29T03:01:40;99140.59;;;7.98;58.77
59272;BME280;45043;51.068;7.026;2022-12-29T03:05:22;99147.91;;;7.96;58.75
59272;BME280;45043;51.068;7.026;2022-12-29T03:11:58;99132.84;;;7.96;59.23
59272;BME280;45043;51.068;7.026;2022-12-29T03:15:15;99129.41;;;7.96;59.20
59272;BME280;45043;51.068;7.026;2022-12-29T03:18:46;99137.75;;;7.93;59.77
59272;BME280;45043;51.068;7.026;2022-12-29T03:21:57;99126.78;;;7.89;59.71
59272;BME280;45043;51.068;7.026;2022-12-29T03:25:45;99106.50;;;7.83;60.20
59272;BME280;45043;51.068;7.026;2022-12-29T03:28:52;99110.94;;;7.89;60.52
59272;BME280;45043;51.068;7.026;2022-12-29T03:31:59;99110.34;;;7.87;60.74
59272;BME280;45043;51.068;7.026;2022-12-29T03:35:03;99113.78;;;7.88;61.23
59272;BME280;45043;51.068;7.026;2022-12-29T03:38:16;99109.72;;;7.85;61.22
59272;BME280;45043;51.068;7.026;2022-12-29T03:41:26;99105.25;;;7.86;61.49
59272;BME280;45043;51.068;7.026;2022-12-29T03:44:37;99108.69;;;7.86;61.57
59272;BME280;45043;51.068;7.026;2022-12-29T03:47:39;99118.69;;;7.84;61.70
59272;BME280;45043;51.068;7.026;2022-12-29T03:50:40;99110.75;;;7.84;61.98
59272;BME280;45043;51.068;7.026;2022-12-29T03:53:41;99095.94;;;7.83;62.12
59272;BME280;45043;51.068;7.026;2022-12-29T03:56:42;99095.09;;;7.82;62.25
59272;BME280;45043;51.068;7.026;2022-12-29T03:59:42;99095.72;;;7.84;62.59
59272;BME280;45043;51.068;7.026;2022-12-29T04:02:43;99081.72;;;7.77;62.37
59272;BME280;45043;51.068;7.026;2022-12-29T04:05:47;99093.47;;;7.81;62.42
59272;BME280;45043;51.068;7.026;2022-12-29T04:08:48;99084.97;;;7.79;62.21
59272;BME280;45043;51.068;7.026;2022-12-29T04:11:50;99090.41;;;7.84;62.43
59272;BME280;45043;51.068;7.026;2022-12-29T04:14:51;99088.81;;;7.83;62.71
59272;BME280;45043;51.068;7.026;2022-12-29T04:17:52;99083.13;;;7.80;62.22
59272;BME280;45043;51.068;7.026;2022-12-29T04:20:52;99088.97;;;7.89;62.39
59272;BME280;45043;51.068;7.026;2022-12-29T04:24:05;99077.97;;;7.92;62.31
59272;BME280;45043;51.068;7.026;2022-12-29T04:27:09;99075.91;;;7.94;62.28
59272;BME280;45043;51.068;7.026;2022-12-29T04:30:22;99065.34;;;7.94;62.17
59272;BME280;45043;51.068;7.026;2022-12-29T04:33:43;99075.53;;;7.90;62.38
59272;BME280;45043;51.068;7.026;2022-12-29T04:36:44;99082.66;;;7.90;62.20
59272;BME280;45043;51.068;7.026;2022-12-29T04:39:46;99086.97;;;7.84;62.06
59272;BME280;45043;51.068;7.026;2022-12-29T04:42:48;99086.09;;;7.90;61.93
59272;BME280;45043;51.068;7.026;2022-12-29T04:45:48;99089.78;;;7.89;61.80
59272;BME280;45043;51.068;7.026;2022-12-29T04:49:09;99102.81;;;7.91;61.92
59272;BME280;45043;51.068;7.026;2022-12-29T04:52:28;99095.28;;;7.88;61.84
59272;BME280;45043;51.068;7.026;2022-12-29T04:55:29;99104.84;;;7.89;61.57
59272;BME280;45043;51.068;7.026;2022-12-29T04:58:30;99098.09;;;7.93;61.39
59272;BME280;45043;51.068;7.026;2022-12-29T05:01:32;99106.63;;;7.95;61.34
59272;BME280;45043;51.068;7.026;2022-12-29T05:04:34;99104.00;;;7.95;61.31
59272;BME280;45043;51.068;7.026;2022-12-29T05:07:34;99095.03;;;7.96;61.18
59272;BME280;45043;51.068;7.026;2022-12-29T05:10:35;99107.63;;;7.94;60.18
59272;BME280;45043;51.068;7.026;2022-12-29T05:13:47;99104.38;;;7.98;60.17
59272;BME280;45043;51.068;7.026;2022-12-29T05:16:50;99094.19;;;8.02;60.08
59272;BME280;45043;51.068;7.026;2022-12-29T05:19:51;99098.03;;;8.06;59.65
59272;BME280;45043;51.068;7.026;2022-12-29T05:22:53;99119.75;;;8.08;59.35
59272;BME280;45043;51.068;7.026;2022-12-29T05:25:53;99121.41;;;8.09;59.29
59272;BME280;45043;51.068;7.026;2022-12-29T05:29:20;99135.03;;;8.13;59.26
59272;BME280;45043;51.068;7.026;2022-12-29T05:32:21;99127.66;;;8.15;58.92
59272;BME280;45043;51.068;7.026;2022-12-29T05:35:22;99123.94;;;8.29;58.80
59272;BME280;45043;51.068;7.026;2022-12-29T05:38:22;99124.47;;;8.38;58.29
59272;BME280;45043;51.068;7.026;2022-12-29T05:41:23;99137.66;;;8.44;57.98
59272;BME280;45043;51.068;7.026;2022-12-29T05:44:29;99139.50;;;8.44;56.68
59272;BME280;45043;51.068;7.026;2022-12-29T05:47:45;99142.31;;;8.49;56.54
59272;BME280;45043;51.068;7.026;2022-12-29T05:51:01;99138.19;;;8.53;56.33
59272;BME280;45043;51.068;7.026;2022-12-29T05:54:11;99134.28;;;8.87;55.95
59272;BME280;45043;51.068;7.026;2022-12-29T05:57:12;99140.69;;;9.16;55.44
59272;BME280;45043;51.068;7.026;2022-12-29T06:00:14;99158.25;;;9.36;54.62
59272;BME280;45043;51.068;7.026;2022-12-29T06:03:20;99147.66;;;9.54;54.05
59272;BME280;45043;51.068;7.026;2022-12-29T06:06:21;99141.38;;;9.67;53.76
59272;BME280;45043;51.068;7.026;2022-12-29T06:09:21;99137.84;;;9.73;53.32
59272;BME280;45043;51.068;7.026;2022-12-29T06:12:22;99139.38;;;9.81;53.20
59272;BME280;45043;51.068;7.026;2022-12-29T06:15:25;99125.44;;;9.85;53.05
59272;BME280;45043;51.068;7.026;2022-12-29T06:18:27;99134.34;;;9.91;52.80
59272;BME280;45043;51.068;7.026;2022-12-29T06:21:27;99124.19;;;9.88;52.14
59272;BME280;45043;51.068;7.026;2022-12-29T06:24:28;99135.00;;;9.86;52.09
59272;BME280;45043;51.068;7.026;2022-12-29T06:27:28;99128.88;;;9.86;51.44
59272;BME280;45043;51.068;7.026;2022-12-29T06:30:29;99149.53;;;9.84;51.14
59272;BME280;45043;51.068;7.026;2022-12-29T06:33:30;99140.53;;;9.85;50.69
59272;BME280;45043;51.068;7.026;2022-12-29T06:36:31;99150.72;;;9.88;50.10
59272;BME280;45043;51.068;7.026;2022-12-29T06:39:31;99168.25;;;9.89;49.84
59272;BME280;45043;51.068;7.026;2022-12-29T06:42:39;99155.56;;;9.91;49.99
59272;BME280;45043;51.068;7.026;2022-12-29T06:46:06;99161.69;;;9.91;49.99
59272;BME280;45043;51.068;7.026;2022-12-29T06:49:06;99153.13;;;9.89;49.80
59272;BME280;45043;51.068;7.026;2022-12-29T06:52:06;99156.59;;;9.90;49.54
59272;BME280;45043;51.068;7.026;2022-12-29T06:55:07;99159.03;;;9.91;50.30
59272;BME280;45043;51.068;7.026;2022-12-29T06:58:08;99169.03;;;9.89;50.01
59272;BME280;45043;51.068;7.026;2022-12-29T07:01:08;99152.91;;;9.91;49.81
59272;BME280;45043;51.068;7.026;2022-12-29T07:04:09;99164.59;;;10.01;50.09
59272;BME280;45043;51.068;7.026;2022-12-29T07:07:10;99174.63;;;9.99;50.20
59272;BME280;45043;51.068;7.026;2022-12-29T07:10:10;99172.34;;;10.03;49.71
59272;BME280;45043;51.068;7.026;2022-12-29T07:13:11;99175.88;;;9.97;49.80
59272;BME280;45043;51.068;7.026;2022-12-29T07:16:11;99183.63;;;9.98;50.18
59272;BME280;45043;51.068;7.026;2022-12-29T07:19:12;99183.84;;;9.97;49.95
59272;BME280;45043;51.068;7.026;2022-12-29T07:22:12;99190.19;;;9.96;50.07
59272;BME280;45043;51.068;7.026;2022-12-29T07:25:17;99204.56;;;9.88;50.05
59272;BME280;45043;51.068;7.026;2022-12-29T07:28:18;99209.44;;;9.91;49.76
59272;BME280;45043;51.068;7.026;2022-12-29T07:31:21;99224.53;;;9.91;50.00
59272;BME280;45043;51.068;7.026;2022-12-29T07:34:22;99205.09;;;9.79;49.95
59272;BME280;45043;51.068;7.026;2022-12-29T07:37:22;99218.50;;;9.84;50.17
59272;BME280;45043;51.068;7.026;2022-12-29T07:40:22;99211.88;;;9.74;50.29
59272;BME280;45043;51.068;7.026;2022-12-29T07:43:23;99226.31;;;9.79;50.37
59272;BME280;45043;51.068;7.026;2022-12-29T07:46:43;99232.88;;;9.76;50.20
59272;BME280;45043;51.068;7.026;2022-12-29T07:49:44;99240.84;;;9.76;50.38
59272;BME280;45043;51.068;7.026;2022-12-29T07:52:44;99257.75;;;9.75;50.21
59272;BME280;45043;51.068;7.026;2022-12-29T07:55:47;99239.44;;;9.73;50.35
59272;BME280;45043;51.068;7.026;2022-12-29T07:58:47;99247.38;;;9.73;50.41
59272;BME280;45043;51.068;7.026;2022-12-29T08:01:48;99269.41;;;9.74;50.56
59272;BME280;45043;51.068;7.026;2022-12-29T08:04:48;99255.63;;;9.65;50.67
59272;BME280;45043;51.068;7.026;2022-12-29T08:07:49;99273.75;;;9.68;50.80
59272;BME280;45043;51.068;7.026;2022-12-29T08:10:49;99272.34;;;9.66;50.88
59272;BME280;45043;51.068;7.026;2022-12-29T08:13:49;99261.75;;;9.66;51.22
59272;BME280;45043;51.068;7.026;2022-12-29T08:16:50;99259.91;;;9.66;50.85
59272;BME280;45043;51.068;7.026;2022-12-29T08:19:50;99258.84;;;9.67;50.90
59272;BME280;45043;51.068;7.026;2022-12-29T08:22:51;99276.03;;;9.65;51.08
59272;BME280;45043;51.068;7.026;2022-12-29T08:26:02;99282.34;;;9.64;50.71
59272;BME280;45043;51.068;7.026;2022-12-29T08:29:03;99272.66;;;9.58;51.09
59272;BME280;45043;51.068;7.026;2022-12-29T08:32:04;99270.63;;;9.53;51.08
59272;BME280;45043;51.068;7.026;2022-12-29T08:35:05;99273.97;;;9.42;51.13
59272;BME280;45043;51.068;7.026;2022-12-29T08:38:05;99284.69;;;9.28;50.79
59272;BME280;45043;51.068;7.026;2022-12-29T08:41:06;99289.28;;;9.15;51.05
59272;BME280;45043;51.068;7.026;2022-12-29T08:44:06;99296.47;;;9.08;51.18
59272;BME280;45043;51.068;7.026;2022-12-29T08:47:09;99288.16;;;9.04;51.11
59272;BME280;45043;51.068;7.026;2022-12-29T08:50:10;99284.16;;;8.95;50.90
59272;BME280;45043;51.068;7.026;2022-12-29T08:53:11;99287.81;;;8.94;51.03
59272;BME280;45043;51.068;7.026;2022-12-29T08:56:12;99320.84;;;8.91;50.53
59272;BME280;45043;51.068;7.026;2022-12-29T08:59:19;99310.44;;;8.90;50.76
59272;BME280;45043;51.068;7.026;2022-12-29T09:02:22;99291.53;;;8.86;50.85
59272;BME280;45043;51.068;7.026;2022-12-29T09:05:22;99302.75;;;8.82;50.66
59272;BME280;45043;51.068;7.026;2022-12-29T09:08:23;99333.09;;;8.86;50.89
59272;BME280;45043;51.068;7.026;2022-12-29T09:11:24;99331.06;;;8.88;50.62
59272;BME280;45043;51.068;7.026;2022-12-29T09:14:25;99316.78;;;8.89;50.54
59272;BME280;45043;51.068;7.026;2022-12-29T09:17:26;99320.84;;;8.91;50.57
59272;BME280;45043;51.068;7.026;2022-12-29T09:20:44;99311.91;;;8.86;50.51
59272;BME280;45043;51.068;7.026;2022-12-29T09:23:45;99320.47;;;8.88;50.24
59272;BME280;45043;51.068;7.026;2022-12-29T09:26:45;99357.53;;;8.88;50.53
59272;BME280;45043;51.068;7.026;2022-12-29T09:29:46;99349.41;;;8.83;50.12
59272;BME280;45043;51.068;7.026;2022-12-29T09:32:47;99371.16;;;8.91;50.04
59272;BME280;45043;51.068;7.026;2022-12-29T09:35:56;99356.06;;;8.98;49.79
59272;BME280;45043;51.068;7.026;2022-12-29T09:38:57;99391.09;;;8.94;49.39
59272;BME280;45043;51.068;7.026;2022-12-29T09:42:08;99388.81;;;9.04;49.44
59272;BME280;45043;51.068;7.026;2022-12-29T09:45:20;99361.69;;;9.09;48.92
59272;BME280;45043;51.068;7.026;2022-12-29T09:48:33;99378.56;;;9.14;48.64
59272;BME280;45043;51.068;7.026;2022-12-29T09:51:38;99373.69;;;9.11;48.38
59272;BME280;45043;51.068;7.026;2022-12-29T09:54:48;99400.28;;;8.98;48.18
59272;BME280;45043;51.068;7.026;2022-12-29T09:57:58;99380.69;;;8.99;48.02
59272;BME280;45043;51.068;7.026;2022-12-29T10:01:04;99430.78;;;9.07;47.99
59272;BME280;45043;51.068;7.026;2022-12-29T10:04:06;99395.31;;;9.08;48.10
59272;BME280;45043;51.068;7.026;2022-12-29T10:07:13;99369.22;;;9.05;47.67
59272;BME280;45043;51.068;7.026;2022-12-29T10:10:38;99378.22;;;9.04;47.52
59272;BME280;45043;51.068;7.026;2022-12-29T10:20:48;99375.41;;;8.99;47.30
59272;BME280;45043;51.068;7.026;2022-12-29T10:23:52;99375.38;;;9.06;47.70
59272;BME280;45043;51.068;7.026;2022-12-29T10:26:53;99372.09;;;9.03;47.07
59272;BME280;45043;51.068;7.026;2022-12-29T10:29:58;99367.47;;;8.99;47.03
59272;BME280;45043;51.068;7.026;2022-12-29T10:33:04;99362.31;;;9.04;46.82
59272;BME280;45043;51.068;7.026;2022-12-29T10:36:16;99375.09;;;9.14;46.57
59272;BME280;45043;51.068;7.026;2022-12-29T10:39:26;99374.88;;;9.15;46.26
59272;BME280;45043;51.068;7.026;2022-12-29T10:42:36;99374.88;;;9.15;46.00
59272;BME280;45043;51.068;7.026;2022-12-29T10:45:40;99381.38;;;9.19;46.12
59272;BME280;45043;51.068;7.026;2022-12-29T10:48:41;99442.16;;;9.14;46.02
59272;BME280;45043;51.068;7.026;2022-12-29T10:51:47;99392.47;;;9.10;46.08
59272;BME280;45043;51.068;7.026;2022-12-29T10:54:56;99388.03;;;8.97;45.99
59272;BME280;45043;51.068;7.026;2022-12-29T10:58:02;99403.91;;;9.03;46.48
59272;BME280;45043;51.068;7.026;2022-12-29T11:01:09;99384.72;;;9.08;46.22
59272;BME280;45043;51.068;7.026;2022-12-29T11:07:22;99412.16;;;8.82;46.15
59272;BME280;45043;51.068;7.026;2022-12-29T11:14:13;99399.41;;;8.66;46.86
59272;BME280;45043;51.068;7.026;2022-12-29T11:17:16;99399.00;;;8.62;47.13
59272;BME280;45043;51.068;7.026;2022-12-29T11:20:29;99422.25;;;8.53;47.58
59272;BME280;45043;51.068;7.026;2022-12-29T11:23:39;99412.47;;;8.54;47.51
59272;BME280;45043;51.068;7.026;2022-12-29T11:26:43;99425.31;;;8.50;47.44
59272;BME280;45043;51.068;7.026;2022-12-29T11:29:44;99435.13;;;8.37;47.86
59272;BME280;45043;51.068;7.026;2022-12-29T11:32:51;99467.91;;;8.29;47.87
59272;BME280;45043;51.068;7.026;2022-12-29T11:35:57;99422.72;;;8.30;47.87
59272;BME280;45043;51.068;7.026;2022-12-29T11:38:58;99447.38;;;8.24;48.09
59272;BME280;45043;51.068;7.026;2022-12-29T11:41:59;99404.38;;;8.22;48.16
59272;BME280;45043;51.068;7.026;2022-12-29T11:45:22;99469.13;;;8.13;47.63
59272;BME280;45043;51.068;7.026;2022-12-29T11:48:28;99447.75;;;8.08;47.96
59272;BME280;45043;51.068;7.026;2022-12-29T11:51:37;99420.50;;;8.14;48.10
59272;BME280;45043;51.068;7.026;2022-12-29T11:54:39;99448.16;;;8.12;48.09
59272;BME280;45043;51.068;7.026;2022-12-29T11:57:41;99434.75;;;8.06;48.46
59272;BME280;45043;51.068;7.026;2022-12-29T12:00:43;99440.03;;;8.06;48.56
59272;BME280;45043;51.068;7.026;2022-12-29T12:03:50;99481.94;;;8.03;48.63
59272;BME280;45043;51.068;7.026;2022-12-29T12:07:12;99422.94;;;7.96;48.52
59272;BME280;45043;51.068;7.026;2022-12-29T12:10:29;99455.50;;;7.90;49.01
59272;BME280;45043;51.068;7.026;2022-12-29T12:17:09;99472.78;;;7.92;48.75
59272;BME280;45043;51.068;7.026;2022-12-29T12:20:32;99444.72;;;7.98;48.53
59272;BME280;45043;51.068;7.026;2022-12-29T12:30:40;99469.34;;;7.92;49.11
59272;BME280;45043;51.068;7.026;2022-12-29T12:33:47;99455.09;;;7.93;49.08
59272;BME280;45043;51.068;7.026;2022-12-29T12:40:29;99482.94;;;7.82;49.29
59272;BME280;45043;51.068;7.026;2022-12-29T12:43:37;99505.13;;;7.74;49.27
59272;BME280;45043;51.068;7.026;2022-12-29T12:46:59;99474.63;;;7.85;49.23
59272;BME280;45043;51.068;7.026;2022-12-29T12:50:14;99498.44;;;7.92;49.67
59272;BME280;45043;51.068;7.026;2022-12-29T13:00:11;99472.97;;;7.71;49.71
59272;BME280;45043;51.068;7.026;2022-12-29T13:03:19;99498.22;;;7.73;49.59
59272;BME280;45043;51.068;7.026;2022-12-29T13:20:19;99480.72;;;7.72;48.81
59272;BME280;45043;51.068;7.026;2022-12-29T13:23:30;99497.59;;;7.78;48.90
59272;BME280;45043;51.068;7.026;2022-12-29T13:36:13;99514.88;;;7.74;48.92
59272;BME280;45043;51.068;7.026;2022-12-29T13:39:21;99519.94;;;7.75;49.22
59272;BME280;45043;51.068;7.026;2022-12-29T13:42:26;99488.44;;;7.80;48.94
59272;BME280;45043;51.068;7.026;2022-12-29T13:45:29;99527.09;;;7.81;49.31
59272;BME280;45043;51.068;7.026;2022-12-29T13:48:37;99516.91;;;7.78;49.30
59272;BME280;45043;51.068;7.026;2022-12-29T13:51:47;99511.63;;;7.78;49.60
59272;BME280;45043;51.068;7.026;2022-12-29T13:55:18;99505.50;;;7.71;49.83
59272;BME280;45043;51.068;7.026;2022-12-29T14:01:31;99505.47;;;7.51;50.36
59272;BME280;45043;51.068;7.026;2022-12-29T14:04:35;99517.25;;;7.49;50.41
59272;BME280;45043;51.068;7.026;2022-12-29T14:07:37;99517.25;;;7.49;50.31
59272;BME280;45043;51.068;7.026;2022-12-29T14:10:47;99556.91;;;7.49;49.86
59272;BME280;45043;51.068;7.026;2022-12-29T14:13:48;99576.41;;;7.48;49.61
59272;BME280;45043;51.068;7.026;2022-12-29T14:16:49;99533.50;;;7.46;49.33
59272;BME280;45043;51.068;7.026;2022-12-29T14:19:53;99512.78;;;7.49;49.41
59272;BME280;45043;51.068;7.026;2022-12-29T14:22:58;99542.47;;;7.45;49.12
59272;BME280;45043;51.068;7.026;2022-12-29T14:35:45;99530.63;;;7.34;48.86
59272;BME280;45043;51.068;7.026;2022-12-29T14:38:49;99569.66;;;7.32;48.99
59272;BME280;45043;51.068;7.026;2022-12-29T14:48:44;99554.94;;;7.16;49.45
59272;BME280;45043;51.068;7.026;2022-12-29T14:51:45;99559.66;;;7.21;49.59
59272;BME280;45043;51.068;7.026;2022-12-29T14:54:50;99538.28;;;7.16;50.08
59272;BME280;45043;51.068;7.026;2022-12-29T14:57:56;99546.06;;;7.24;50.15
59272;BME280;45043;51.068;7.026;2022-12-29T15:01:00;99561.88;;;7.17;50.09
59272;BME280;45043;51.068;7.026;2022-12-29T15:04:26;99537.47;;;7.15;49.72
59272;BME280;45043;51.068;7.026;2022-12-29T15:07:31;99556.63;;;7.24;49.74
59272;BME280;45043;51.068;7.026;2022-12-29T15:10:38;99557.44;;;7.31;48.94
59272;BME280;45043;51.068;7.026;2022-12-29T15:13:42;99549.34;;;7.32;48.94
59272;BME280;45043;51.068;7.026;2022-12-29T15:16:43;99568.44;;;7.28;49.20
59272;BME280;45043;51.068;7.026;2022-12-29T15:19:44;99550.13;;;7.26;49.69
59272;BME280;45043;51.068;7.026;2022-12-29T15:22:48;99538.31;;;7.22;49.82
59272;BME280;45043;51.068;7.026;2022-12-29T15:28:58;99554.13;;;7.09;51.08
59272;BME280;45043;51.068;7.026;2022-12-29T15:32:00;99554.13;;;7.09;51.26
59272;BME280;45043;51.068;7.026;2022-12-29T15:35:22;99559.53;;;7.01;51.25
59272;BME280;45043;51.068;7.026;2022-12-29T15:38:25;99575.59;;;6.99;51.68
59272;BME280;45043;51.068;7.026;2022-12-29T15:42:50;99581.63;;;6.86;51.69
59272;BME280;45043;51.068;7.026;2022-12-29T15:45:31;99559.66;;;6.86;51.69
59272;BME280;45043;51.068;7.026;2022-12-29T15:48:32;99566.78;;;6.85;51.69
59272;BME280;45043;51.068;7.026;2022-12-29T15:51:36;99593.81;;;6.88;51.93
59272;BME280;45043;51.068;7.026;2022-12-29T15:54:42;99585.47;;;6.84;51.62
59272;BME280;45043;51.068;7.026;2022-12-29T15:57:43;99577.91;;;6.81;51.78
59272;BME280;45043;51.068;7.026;2022-12-29T16:00:50;99582.38;;;6.80;51.67
59272;BME280;45043;51.068;7.026;2022-12-29T16:03:53;99589.22;;;6.75;51.87
59272;BME280;45043;51.068;7.026;2022-12-29T16:07:00;99586.16;;;6.71;51.28
59272;BME280;45043;51.068;7.026;2022-12-29T16:10:02;99580.25;;;6.69;51.97
59272;BME280;45043;51.068;7.026;2022-12-29T16:16:18;99584.69;;;6.62;51.91
59272;BME280;45043;51.068;7.026;2022-12-29T16:19:25;99589.09;;;6.55;52.01
59272;BME280;45043;51.068;7.026;2022-12-29T16:22:39;99583.38;;;6.51;51.54
59272;BME280;45043;51.068;7.026;2022-12-29T16:25:41;99584.94;;;6.46;51.93
59272;BME280;45043;51.068;7.026;2022-12-29T16:28:41;99595.91;;;6.43;51.98
59272;BME280;45043;51.068;7.026;2022-12-29T16:34:48;99599.94;;;6.38;51.73
59272;BME280;45043;51.068;7.026;2022-12-29T16:41:29;99601.44;;;6.26;51.89
59272;BME280;45043;51.068;7.026;2022-12-29T16:44:30;99610.72;;;6.22;52.08
59272;BME280;45043;51.068;7.026;2022-12-29T16:47:31;99607.84;;;6.17;52.11
59272;BME280;45043;51.068;7.026;2022-12-29T16:50:33;99618.41;;;6.17;52.08
59272;BME280;45043;51.068;7.026;2022-12-29T16:53:37;99606.84;;;6.18;52.12
59272;BME280;45043;51.068;7.026;2022-12-29T16:56:43;99617.59;;;6.17;52.14
59272;BME280;45043;51.068;7.026;2022-12-29T16:59:45;99622.41;;;6.13;52.24
59272;BME280;45043;51.068;7.026;2022-12-29T17:02:45;99629.69;;;6.11;52.10
59272;BME280;45043;51.068;7.026;2022-12-29T17:05:47;99637.00;;;6.09;52.59
59272;BME280;45043;51.068;7.026;2022-12-29T17:08:48;99651.34;;;6.06;52.99
59272;BME280;45043;51.068;7.026;2022-12-29T17:11:51;99641.81;;;6.05;53.18
59272;BME280;45043;51.068;7.026;2022-12-29T17:14:59;99642.63;;;6.06;53.12
59272;BME280;45043;51.068;7.026;2022-12-29T17:18:00;99650.53;;;6.06;53.14
59272;BME280;45043;51.068;7.026;2022-12-29T17:21:01;99664.72;;;6.05;53.40
59272;BME280;45043;51.068;7.026;2022-12-29T17:24:01;99660.44;;;6.04;53.52
59272;BME280;45043;51.068;7.026;2022-12-29T17:27:03;99666.97;;;6.08;53.74
59272;BME280;45043;51.068;7.026;2022-12-29T17:30:15;99666.00;;;6.09;53.52
59272;BME280;45043;51.068;7.026;2022-12-29T17:33:18;99663.72;;;6.06;53.74
59272;BME280;45043;51.068;7.026;2022-12-29T17:36:18;99659.63;;;6.03;53.92
59272;BME280;45043;51.068;7.026;2022-12-29T17:39:19;99663.44;;;6.01;53.91
59272;BME280;45043;51.068;7.026;2022-12-29T17:42:19;99667.09;;;6.00;54.04
59272;BME280;45043;51.068;7.026;2022-12-29T17:45:22;99674.19;;;5.99;53.70
59272;BME280;45043;51.068;7.026;2022-12-29T17:48:24;99674.38;;;5.98;53.83
59272;BME280;45043;51.068;7.026;2022-12-29T17:51:24;99679.47;;;5.99;53.54
59272;BME280;45043;51.068;7.026;2022-12-29T17:54:25;99668.28;;;5.97;53.60
59272;BME280;45043;51.068;7.026;2022-12-29T17:57:26;99667.28;;;5.98;53.55
59272;BME280;45043;51.068;7.026;2022-12-29T18:00:28;99677.84;;;5.98;53.72
59272;BME280;45043;51.068;7.026;2022-12-29T18:03:35;99676.25;;;6.04;53.49
59272;BME280;45043;51.068;7.026;2022-12-29T18:06:36;99681.53;;;6.04;53.40
59272;BME280;45043;51.068;7.026;2022-12-29T18:09:36;99693.47;;;6.00;53.72
59272;BME280;45043;51.068;7.026;2022-12-29T18:12:42;99694.72;;;6.04;53.52
59272;BME280;45043;51.068;7.026;2022-12-29T18:15:43;99703.00;;;6.01;53.76
59272;BME280;45043;51.068;7.026;2022-12-29T18:18:44;99702.09;;;5.94;54.04
59272;BME280;45043;51.068;7.026;2022-12-29T18:21:44;99715.56;;;5.99;53.72
59272;BME280;45043;51.068;7.026;2022-12-29T18:24:45;99721.56;;;5.93;54.59